Time;durP1;ratioP1;P1;durP2;ratioP2;P2;SDS_P1;SDS_P2;PMS_P1;PMS_P2;Temp;Humidity;BMP_temperature;BMP_pressure;BME280_temperature;BME280_humidity;BME280_pressure;Samples;Min_cycle;Max_cycle;Signal;HPM_P1;HPM_P2
2023/03/20 00:00:38;;;;;;;23.52;9.77;;;;;;;8.19;100.00;101819.91;5055733;28;20228;-77
2023/03/20 00:03:04;;;;;;;24.08;9.63;;;;;;;8.17;100.00;101821.81;5054414;28;20476;-76
2023/03/20 00:05:30;;;;;;;26.45;10.07;;;;;;;8.17;100.00;101831.63;5062795;28;20031;-76
2023/03/20 00:07:56;;;;;;;25.20;9.73;;;;;;;8.16;100.00;101821.91;5055624;28;20029;-77
2023/03/20 00:10:29;;;;;;;21.90;9.27;;;;;;;8.14;100.00;101826.44;5060528;28;20120;-77
2023/03/20 00:12:56;;;;;;;27.25;9.98;;;;;;;8.14;100.00;101819.28;5060504;28;20067;-77
2023/03/20 00:15:37;;;;;;;25.02;9.57;;;;;;;8.15;100.00;101825.50;5059607;28;20491;-77
2023/03/20 00:18:51;;;;;;;26.60;9.70;;;;;;;8.16;100.00;101822.75;5057400;28;20056;-77
2023/03/20 00:21:18;;;;;;;26.25;10.75;;;;;;;8.13;100.00;101822.91;5050582;28;20037;-77
2023/03/20 00:23:43;;;;;;;25.92;9.85;;;;;;;8.14;100.00;101819.28;5056741;28;20025;-76
2023/03/20 00:26:14;;;;;;;27.17;9.55;;;;;;;8.11;99.87;101819.44;5062164;28;20373;-76
2023/03/20 00:28:44;;;;;;;27.33;10.95;;;;;;;8.06;99.49;101816.09;5052746;28;20020;-77
2023/03/20 00:31:37;;;;;;;26.67;10.07;;;;;;;8.03;99.19;101800.19;5063236;28;20083;-77
2023/03/20 00:34:05;;;;;;;23.38;9.07;;;;;;;7.94;99.17;101789.91;5059306;28;20042;-76
2023/03/20 00:36:31;;;;;;;27.60;10.02;;;;;;;7.89;99.13;101792.78;5048642;28;20032;-77
2023/03/20 00:38:56;;;;;;;24.20;8.85;;;;;;;7.84;98.99;101797.50;5057704;28;20028;-76
2023/03/20 00:41:29;;;;;;;26.02;9.82;;;;;;;7.78;99.22;101787.94;5047511;28;20017;-77
2023/03/20 00:43:58;;;;;;;23.42;8.60;;;;;;;7.73;99.40;101783.75;5061199;28;20063;-76
2023/03/20 00:46:24;;;;;;;23.75;9.38;;;;;;;7.65;99.33;101793.00;5065349;28;20120;-77
2023/03/20 00:48:49;;;;;;;24.13;8.30;;;;;;;7.60;99.17;101780.75;5051245;28;20051;-76
2023/03/20 00:51:15;;;;;;;23.13;9.27;;;;;;;7.51;99.42;101780.25;5052716;28;20021;-76
2023/03/20 00:53:40;;;;;;;23.17;9.00;;;;;;;7.47;99.70;101785.81;5044618;28;20283;-76
2023/03/20 00:56:18;;;;;;;24.20;9.02;;;;;;;7.44;99.70;101799.34;5048151;28;20467;-76
2023/03/20 00:58:43;;;;;;;27.48;8.85;;;;;;;7.35;98.91;101796.13;5053960;28;20033;-76
2023/03/20 01:01:08;;;;;;;20.13;8.13;;;;;;;7.35;99.16;101814.00;5059083;28;20059;-76
2023/03/20 01:03:34;;;;;;;22.25;8.23;;;;;;;7.26;99.20;101820.63;5060416;28;20109;-76
2023/03/20 01:05:59;;;;;;;22.75;8.02;;;;;;;7.23;99.25;101826.06;5043687;28;20149;-77
2023/03/20 01:08:25;;;;;;;22.35;8.85;;;;;;;7.12;98.69;101834.56;5057518;28;20032;-76
2023/03/20 01:10:57;;;;;;;23.10;9.02;;;;;;;7.05;99.58;101837.56;5051611;28;20072;-77
2023/03/20 01:13:25;;;;;;;24.38;9.48;;;;;;;6.95;99.74;101847.78;5054377;28;20079;-76
2023/03/20 01:15:52;;;;;;;26.42;9.00;;;;;;;6.88;99.93;101830.25;5043618;28;20086;-76
2023/03/20 01:18:18;;;;;;;22.95;8.98;;;;;;;6.82;100.00;101821.56;5058332;28;20533;-77
2023/03/20 01:20:45;;;;;;;23.88;9.85;;;;;;;6.80;100.00;101812.75;5049676;28;20053;-76
2023/03/20 01:23:11;;;;;;;24.67;10.63;;;;;;;6.76;100.00;101804.91;5046249;28;20016;-76
2023/03/20 01:25:37;;;;;;;24.65;10.35;;;;;;;6.77;100.00;101809.34;5061469;28;20553;-76
2023/03/20 01:28:10;;;;;;;25.60;10.95;;;;;;;6.73;100.00;101803.25;5063566;28;20033;-76
2023/03/20 01:30:36;;;;;;;30.65;10.75;;;;;;;6.74;100.00;101820.16;5061274;28;20025;-76
2023/03/20 01:33:10;;;;;;;24.70;10.75;;;;;;;6.65;99.97;101830.28;5055428;28;20399;-77
2023/03/20 01:35:36;;;;;;;22.50;9.20;;;;;;;6.58;100.00;101822.59;5052236;28;20097;-77
2023/03/20 01:38:01;;;;;;;24.48;10.10;;;;;;;6.52;100.00;101813.03;5044702;28;20025;-76
2023/03/20 01:40:30;;;;;;;26.70;11.60;;;;;;;6.50;100.00;101811.34;5058741;28;20044;-76
2023/03/20 01:42:56;;;;;;;29.02;12.23;;;;;;;6.52;100.00;101809.50;5058930;28;20104;-76
2023/03/20 01:45:27;;;;;;;26.70;12.02;;;;;;;6.49;100.00;101818.50;5057905;28;20492;-77
2023/03/20 01:47:52;;;;;;;28.35;11.88;;;;;;;6.43;100.00;101800.91;5058827;28;20522;-76
2023/03/20 01:50:22;;;;;;;27.15;11.48;;;;;;;6.42;100.00;101811.66;5058498;28;20036;-76
2023/03/20 01:52:49;;;;;;;;;;;;;;;6.53;100.00;101805.88;5042331;28;20028;-76
2023/03/20 01:55:15;;;;;;;28.45;12.07;;;;;;;6.45;100.00;101803.53;5054657;28;19912;-76
2023/03/20 01:57:40;;;;;;;25.33;11.15;;;;;;;6.44;100.00;101807.13;5061340;28;20032;-77
2023/03/20 02:00:12;;;;;;;26.13;12.48;;;;;;;6.41;100.00;101804.56;5061400;28;20096;-76
2023/03/20 02:02:39;;;;;;;29.83;12.80;;;;;;;6.36;100.00;101803.91;5055810;28;20024;-74
2023/03/20 02:05:10;;;;;;;26.55;11.25;;;;;;;6.37;100.00;101813.63;5064086;28;20472;-74
2023/03/20 02:07:37;;;;;;;27.38;12.10;;;;;;;6.37;100.00;101805.63;5057667;28;20120;-74
2023/03/20 02:10:07;;;;;;;27.02;11.95;;;;;;;6.37;100.00;101806.50;5061816;28;20073;-74
2023/03/20 02:12:34;;;;;;;26.77;12.38;;;;;;;6.39;100.00;101830.47;5046620;28;20116;-73
2023/03/20 02:14:59;;;;;;;28.60;12.73;;;;;;;6.37;100.00;101824.31;5055898;28;20026;-73
2023/03/20 02:17:25;;;;;;;31.73;13.15;;;;;;;6.37;100.00;101818.97;5063986;28;20024;-75
2023/03/20 02:20:06;;;;;;;26.63;12.57;;;;;;;6.39;100.00;101827.81;5043662;28;20054;-74
2023/03/20 02:23:21;;;;;;;27.20;12.43;;;;;;;6.40;100.00;101824.19;5041818;28;20520;-73
2023/03/20 02:26:00;;;;;;;28.42;13.23;;;;;;;6.37;100.00;101830.53;5053306;28;20067;-73
2023/03/20 02:28:49;;;;;;;26.27;12.45;;;;;;;6.36;100.00;101835.94;5054539;28;20035;-73
2023/03/20 02:31:24;;;;;;;30.25;13.50;;;;;;;6.34;100.00;101835.13;5058691;28;20128;-74
2023/03/20 02:34:22;;;;;;;31.10;13.73;;;;;;;6.35;100.00;101832.38;5052426;28;20035;-73
2023/03/20 02:36:58;;;;;;;30.10;13.75;;;;;;;6.32;100.00;101812.97;5051503;28;20032;-74
2023/03/20 02:39:31;;;;;;;30.92;14.52;;;;;;;6.30;100.00;101813.88;5062375;28;20110;-73
2023/03/20 02:42:07;;;;;;;31.27;13.60;;;;;;;6.29;100.00;101811.28;5057266;28;20077;-74
2023/03/20 02:44:43;;;;;;;29.95;14.48;;;;;;;6.29;100.00;101809.47;5061228;28;20033;-74
2023/03/20 02:47:08;;;;;;;29.00;13.93;;;;;;;6.31;100.00;101804.09;5054690;28;20186;-74
2023/03/20 02:49:53;;;;;;;26.98;13.30;;;;;;;6.32;100.00;101802.28;5062177;28;20630;-73
2023/03/20 02:52:46;;;;;;;30.45;13.93;;;;;;;6.28;100.00;101805.06;5054739;28;20028;-73
2023/03/20 02:55:39;;;;;;;29.05;13.55;;;;;;;6.28;100.00;101793.50;5051147;28;20418;-73
2023/03/20 02:58:25;;;;;;;28.80;15.27;;;;;;;6.24;100.00;101800.78;5049550;28;20076;-74
2023/03/20 03:01:00;;;;;;;28.63;14.15;;;;;;;6.20;100.00;101799.16;5052615;28;20030;-74
2023/03/20 03:03:37;;;;;;;32.10;15.05;;;;;;;6.17;100.00;101788.59;5045217;28;20112;-73
2023/03/20 03:06:28;;;;;;;27.75;13.05;;;;;;;6.16;100.00;101789.53;5043301;28;20361;-73
2023/03/20 03:09:27;;;;;;;33.65;14.85;;;;;;;6.17;100.00;101791.28;5052537;28;20093;-73
2023/03/20 03:12:03;;;;;;;30.35;14.65;;;;;;;6.13;100.00;101784.31;5053977;28;20468;-73
2023/03/20 03:14:40;;;;;;;28.77;14.40;;;;;;;6.14;100.00;101786.06;5058095;28;20016;-73
2023/03/20 03:17:07;;;;;;;31.42;14.32;;;;;;;6.15;100.00;101773.56;5060048;28;20086;-73
2023/03/20 03:19:35;;;;;;;31.08;15.88;;;;;;;6.14;100.00;101767.38;5046483;28;20453;-73
2023/03/20 03:22:01;;;;;;;28.60;13.32;;;;;;;6.14;100.00;101770.06;5052059;28;20078;-74
2023/03/20 03:24:36;;;;;;;30.42;14.30;;;;;;;6.14;100.00;101762.03;5057448;28;20027;-74
2023/03/20 03:27:05;;;;;;;30.20;12.88;;;;;;;6.13;100.00;101760.28;5061993;28;20033;-73
2023/03/20 03:29:34;;;;;;;;;;;;;;;6.22;100.00;101753.72;5063559;28;20043;-73
2023/03/20 03:32:01;;;;;;;28.20;13.60;;;;;;;6.12;100.00;101761.25;5057149;28;19916;-74
2023/03/20 03:34:27;;;;;;;28.27;13.93;;;;;;;6.11;100.00;101764.84;5058085;28;20016;-73
2023/03/20 03:37:19;;;;;;;29.83;14.27;;;;;;;6.08;100.00;101765.81;5062935;28;20064;-74
2023/03/20 03:39:52;;;;;;;30.35;14.57;;;;;;;6.08;100.00;101770.31;5049085;28;20384;-73
2023/03/20 03:42:30;;;;;;;30.40;13.50;;;;;;;6.06;100.00;101765.03;5058155;28;20030;-74
2023/03/20 03:45:16;;;;;;;27.77;13.65;;;;;;;6.08;100.00;101749.81;5060932;28;20626;-75
2023/03/20 03:48:10;;;;;;;32.55;14.48;;;;;;;6.11;100.00;101755.03;5040282;28;20507;-74
2023/03/20 03:50:49;;;;;;;30.50;14.80;;;;;;;6.08;100.00;101755.16;5053466;28;20025;-73
2023/03/20 03:53:21;;;;;;;33.05;13.43;;;;;;;6.07;100.00;101747.22;5052733;28;20030;-77
2023/03/20 03:55:50;;;;;;;27.35;14.35;;;;;;;6.05;100.00;101749.09;5055241;28;20377;-73
2023/03/20 03:58:44;;;;;;;29.17;12.80;;;;;;;6.07;100.00;101753.41;5048119;28;20054;-73
2023/03/20 04:01:13;;;;;;;26.25;13.13;;;;;;;6.03;100.00;101756.25;5055667;28;20028;-73
2023/03/20 04:03:44;;;;;;;32.20;12.98;;;;;;;6.01;100.00;101750.13;5042554;28;20063;-73
2023/03/20 04:06:14;;;;;;;28.15;12.80;;;;;;;5.99;100.00;101749.28;5053245;28;20025;-73
2023/03/20 04:08:40;;;;;;;29.20;14.23;;;;;;;5.98;100.00;101745.78;5051010;28;20112;-73
2023/03/20 04:11:07;;;;;;;28.92;13.02;;;;;;;5.95;100.00;101744.06;5061376;28;20123;-73
2023/03/20 04:13:33;;;;;;;26.92;14.05;;;;;;;5.95;100.00;101738.72;5055258;28;20027;-73
2023/03/20 04:15:58;;;;;;;27.25;13.00;;;;;;;5.94;100.00;101739.66;5055429;28;20030;-74
2023/03/20 04:18:23;;;;;;;26.83;12.30;;;;;;;5.95;100.00;101737.84;5063670;28;20033;-73
2023/03/20 04:20:50;;;;;;;30.17;12.88;;;;;;;5.95;100.00;101738.72;5056946;28;20069;-73
2023/03/20 04:23:16;;;;;;;27.92;12.93;;;;;;;5.94;100.00;101736.13;5061563;28;20021;-73
2023/03/20 04:25:41;;;;;;;28.52;12.75;;;;;;;5.93;100.00;101731.72;5058647;28;20788;-73
2023/03/20 04:28:06;;;;;;;30.40;12.93;;;;;;;5.90;100.00;101740.72;5060695;28;20086;-75
2023/03/20 04:30:32;;;;;;;28.67;13.32;;;;;;;5.89;100.00;101744.31;5054991;28;20109;-73
2023/03/20 04:32:57;;;;;;;26.50;12.48;;;;;;;5.88;100.00;101742.56;5056554;28;20028;-73
2023/03/20 04:35:23;;;;;;;31.73;13.93;;;;;;;5.87;100.00;101745.28;5054860;28;20111;-73
2023/03/20 04:37:48;;;;;;;27.45;12.75;;;;;;;5.87;100.00;101734.63;5065527;28;20063;-73
2023/03/20 04:40:13;;;;;;;27.90;11.85;;;;;;;5.85;100.00;101728.47;5062334;28;20507;-75
2023/03/20 04:42:39;;;;;;;25.52;11.77;;;;;;;5.86;100.00;101732.91;5060077;28;20487;-73
2023/03/20 04:45:05;;;;;;;27.70;13.10;;;;;;;5.87;100.00;101730.16;5067089;28;20036;-73
2023/03/20 04:47:31;;;;;;;27.02;11.68;;;;;;;5.88;100.00;101726.53;5063043;28;20047;-73
2023/03/20 04:49:56;;;;;;;29.17;12.65;;;;;;;5.88;100.00;101720.34;5057015;28;20024;-73
2023/03/20 04:52:21;;;;;;;26.13;11.93;;;;;;;5.88;100.00;101707.88;5061139;28;20131;-74
2023/03/20 04:54:47;;;;;;;28.10;12.38;;;;;;;5.88;100.00;101710.53;5062160;28;20032;-73
2023/03/20 04:57:12;;;;;;;30.88;13.20;;;;;;;5.88;100.00;101710.53;5053854;28;20021;-73
2023/03/20 04:59:37;;;;;;;26.70;12.40;;;;;;;5.88;100.00;101709.69;5056974;28;20033;-73
2023/03/20 05:02:03;;;;;;;23.70;11.57;;;;;;;5.87;100.00;101716.81;5055119;28;20460;-73
2023/03/20 05:04:28;;;;;;;27.10;12.52;;;;;;;5.86;100.00;101716.88;5060259;28;20024;-75
2023/03/20 05:06:54;;;;;;;28.70;12.50;;;;;;;5.87;100.00;101715.94;5054991;28;20032;-73
2023/03/20 05:09:19;;;;;;;26.85;12.07;;;;;;;5.86;100.00;101722.22;5064942;28;20032;-73
2023/03/20 05:11:45;;;;;;;31.98;12.82;;;;;;;5.87;100.00;101714.16;5062762;28;20056;-74
2023/03/20 05:14:10;;;;;;;27.65;13.27;;;;;;;5.88;100.00;101713.22;5060536;28;20416;-73
2023/03/20 05:16:37;;;;;;;28.73;12.80;;;;;;;5.92;100.00;101711.31;5052946;28;20428;-73
2023/03/20 05:19:02;;;;;;;26.85;11.55;;;;;;;5.93;100.00;101708.56;5051756;28;20487;-73
2023/03/20 05:21:27;;;;;;;25.67;12.02;;;;;;;5.93;100.00;101705.03;5058968;28;20028;-73
2023/03/20 05:23:53;;;;;;;26.20;11.70;;;;;;;5.95;100.00;101712.03;5056748;28;20033;-73
2023/03/20 05:26:18;;;;;;;23.52;10.80;;;;;;;5.98;100.00;101710.22;5053004;28;20029;-74
2023/03/20 05:28:44;;;;;;;27.42;11.65;;;;;;;5.99;100.00;101710.16;5058286;28;20059;-73
2023/03/20 05:31:09;;;;;;;27.45;12.35;;;;;;;5.99;100.00;101707.50;5062123;28;20036;-73
2023/03/20 05:33:34;;;;;;;28.92;10.68;;;;;;;5.99;100.00;101711.94;5051970;28;20115;-74
2023/03/20 05:36:00;;;;;;;27.95;11.57;;;;;;;5.98;100.00;101704.88;5053654;28;20350;-73
2023/03/20 05:38:26;;;;;;;31.13;12.00;;;;;;;5.99;100.00;101706.59;5063890;28;20021;-73
2023/03/20 05:41:00;;;;;;;29.17;11.15;;;;;;;6.00;100.00;101713.69;5064304;28;20044;-73
2023/03/20 05:43:27;;;;;;;26.65;11.15;;;;;;;5.99;100.00;101709.28;5060916;28;20048;-73
2023/03/20 05:45:54;;;;;;;29.83;11.05;;;;;;;5.97;100.00;101709.34;5038170;28;20493;-73
2023/03/20 05:48:19;;;;;;;27.65;10.98;;;;;;;6.01;100.00;101713.63;5055512;28;20070;-73
2023/03/20 05:50:44;;;;;;;28.05;10.48;;;;;;;6.05;100.00;101722.38;5058297;28;20424;-73
2023/03/20 05:53:10;;;;;;;28.90;12.57;;;;;;;6.04;100.00;101723.31;5062436;28;20028;-73
2023/03/20 05:55:35;;;;;;;23.80;9.88;;;;;;;6.06;100.00;101724.09;5046609;28;20043;-74
2023/03/20 05:58:01;;;;;;;25.67;11.13;;;;;;;6.07;100.00;101725.84;5038380;28;20053;-74
2023/03/20 06:00:26;;;;;;;27.58;11.23;;;;;;;6.05;100.00;101728.59;5045339;28;20115;-73
2023/03/20 06:02:51;;;;;;;25.88;10.05;;;;;;;6.06;100.00;101729.44;5046940;28;20031;-72
2023/03/20 06:05:17;;;;;;;25.85;10.65;;;;;;;6.05;100.00;101743.75;5046938;28;20600;-75
2023/03/20 06:07:42;;;;;;;26.40;10.68;;;;;;;6.09;100.00;101742.66;5044826;28;20043;-73
2023/03/20 06:10:08;;;;;;;25.17;9.45;;;;;;;6.11;100.00;101740.81;5047714;28;20037;-76
2023/03/20 06:12:34;;;;;;;26.25;10.82;;;;;;;6.11;100.00;101732.81;5044168;28;20111;-75
2023/03/20 06:14:59;;;;;;;23.75;10.45;;;;;;;6.12;100.00;101734.56;5044754;28;20459;-73
2023/03/20 06:17:25;;;;;;;25.38;10.55;;;;;;;6.14;100.00;101743.38;5043070;28;20040;-74
2023/03/20 06:19:50;;;;;;;26.15;9.55;;;;;;;6.16;100.00;101744.16;5042919;28;20063;-75
2023/03/20 06:22:15;;;;;;;25.02;9.43;;;;;;;6.17;100.00;101747.72;5044102;28;20036;-77
2023/03/20 06:24:42;;;;;;;25.50;10.50;;;;;;;6.19;100.00;101746.69;5047742;28;20563;-75
2023/03/20 06:27:07;;;;;;;26.02;9.27;;;;;;;6.20;100.00;101751.13;5046302;28;20032;-73
2023/03/20 06:29:32;;;;;;;26.10;9.98;;;;;;;6.22;100.00;101754.63;5049707;28;20445;-74
2023/03/20 06:31:58;;;;;;;24.65;9.68;;;;;;;6.23;100.00;101747.47;5044471;28;20033;-74
2023/03/20 06:34:26;;;;;;;27.00;9.95;;;;;;;6.27;100.00;101749.09;5043590;28;20155;-75
2023/03/20 06:36:51;;;;;;;25.60;9.90;;;;;;;6.31;100.00;101753.38;5039572;28;20111;-77
2023/03/20 06:39:17;;;;;;;24.80;9.43;;;;;;;6.32;100.00;101756.91;5046215;28;20123;-73
2023/03/20 06:41:42;;;;;;;23.48;9.77;;;;;;;6.35;100.00;101756.75;5045608;28;20029;-74
2023/03/20 06:44:07;;;;;;;26.23;9.68;;;;;;;6.37;100.00;101763.78;5045477;28;20037;-77
2023/03/20 06:46:33;;;;;;;24.35;9.15;;;;;;;6.39;100.00;101766.41;5048552;28;20036;-74
2023/03/20 06:48:58;;;;;;;26.90;10.55;;;;;;;6.41;100.00;101777.88;5045678;28;20460;-73
2023/03/20 06:51:24;;;;;;;24.75;9.50;;;;;;;6.44;100.00;101777.75;5045024;28;20038;-76
2023/03/20 06:53:50;;;;;;;23.05;9.65;;;;;;;6.45;100.00;101784.81;5059047;28;20025;-74
2023/03/20 06:56:15;;;;;;;26.27;10.27;;;;;;;6.48;100.00;101795.38;5043871;28;20041;-74
2023/03/20 06:58:41;;;;;;;25.88;9.90;;;;;;;6.47;100.00;101786.50;5042186;28;20029;-74
2023/03/20 07:01:12;;;;;;;24.67;8.73;;;;;;;6.47;100.00;101791.84;5041954;28;20073;-75
2023/03/20 07:03:37;;;;;;;28.45;10.60;;;;;;;6.49;100.00;101797.13;5043043;28;20027;-75
2023/03/20 07:06:03;;;;;;;26.27;10.57;;;;;;;6.50;99.48;101792.66;5042519;28;20032;-75
2023/03/20 07:08:28;;;;;;;28.55;10.38;;;;;;;6.50;99.79;101790.88;5045597;28;20032;-74
2023/03/20 07:10:53;;;;;;;23.23;9.40;;;;;;;6.52;99.59;101802.34;5041093;28;20055;-76
2023/03/20 07:13:19;;;;;;;23.33;9.07;;;;;;;6.54;99.03;101795.13;5045672;28;20021;-74
2023/03/20 07:15:44;;;;;;;24.70;9.38;;;;;;;6.57;99.28;101805.69;5044164;28;20658;-73
2023/03/20 07:18:10;;;;;;;27.27;10.85;;;;;;;6.62;98.97;101806.38;5062585;28;20089;-73
2023/03/20 07:20:35;;;;;;;26.33;9.90;;;;;;;6.62;98.53;101814.38;5049049;28;20033;-73
2023/03/20 07:23:01;;;;;;;24.23;9.85;;;;;;;6.67;99.04;101808.00;5032513;28;20037;-73
2023/03/20 07:25:26;;;;;;;28.58;10.43;;;;;;;6.70;98.08;101800.69;5062788;28;20025;-73
2023/03/20 07:27:51;;;;;;;23.05;9.68;;;;;;;6.74;98.57;101806.81;5046911;28;20041;-73
2023/03/20 07:30:17;;;;;;;26.27;10.23;;;;;;;6.79;98.52;101815.47;5053952;28;20032;-73
2023/03/20 07:32:44;;;;;;;27.77;9.93;;;;;;;6.80;98.18;101807.41;5040508;28;20022;-73
2023/03/20 07:35:09;;;;;;;27.75;9.90;;;;;;;6.87;97.63;101809.81;5055736;28;20083;-74
2023/03/20 07:37:34;;;;;;;21.08;8.10;;;;;;;6.90;97.54;101809.69;5052967;28;20021;-73
2023/03/20 07:40:00;;;;;;;25.50;9.55;;;;;;;6.93;97.37;101812.25;5062404;28;20108;-73
2023/03/20 07:42:25;;;;;;;25.05;10.10;;;;;;;6.95;97.19;101816.56;5059305;28;20017;-74
2023/03/20 07:44:51;;;;;;;26.05;10.30;;;;;;;6.98;97.32;101813.78;5063443;28;20139;-74
2023/03/20 07:47:16;;;;;;;23.42;10.27;;;;;;;7.00;96.74;101819.06;5049777;28;20531;-73
2023/03/20 07:49:42;;;;;;;23.45;9.40;;;;;;;7.03;96.75;101812.69;5062270;28;20068;-73
2023/03/20 07:52:08;;;;;;;24.10;10.02;;;;;;;7.04;96.08;101811.75;5050667;28;20124;-74
2023/03/20 07:54:33;;;;;;;29.73;9.45;;;;;;;7.06;95.93;101817.91;5040940;28;20090;-74
2023/03/20 07:56:59;;;;;;;26.35;9.55;;;;;;;7.07;95.80;101814.31;5044479;28;20037;-74
2023/03/20 07:59:24;;;;;;;29.88;9.25;;;;;;;7.06;95.30;101807.22;5051374;28;20033;-73
2023/03/20 08:01:51;;;;;;;22.52;8.23;;;;;;;7.08;94.35;101813.38;5050653;28;20037;-75
2023/03/20 08:04:18;;;;;;;24.25;9.43;;;;;;;7.12;95.65;101806.97;5064177;28;20032;-75
2023/03/20 08:06:44;;;;;;;24.55;9.60;;;;;;;7.16;94.79;101803.22;5062073;28;20021;-74
2023/03/20 08:09:09;;;;;;;26.08;9.30;;;;;;;7.20;95.10;101810.16;5051631;28;20025;-74
2023/03/20 08:11:34;;;;;;;23.90;8.55;;;;;;;7.21;94.69;101813.72;5058015;28;20068;-74
2023/03/20 08:14:00;;;;;;;23.17;8.60;;;;;;;7.24;94.95;101810.91;5056739;28;20039;-74
2023/03/20 08:16:25;;;;;;;24.52;9.07;;;;;;;7.25;94.66;101810.84;5052229;28;20025;-75
2023/03/20 08:18:52;;;;;;;28.75;8.95;;;;;;;7.26;94.05;101803.69;5057173;28;20029;-74
2023/03/20 08:21:18;;;;;;;26.25;9.40;;;;;;;7.29;93.94;101809.78;5051149;28;20356;-75
2023/03/20 08:23:43;;;;;;;19.98;7.68;;;;;;;7.32;93.71;101814.09;5054652;28;20032;-74
2023/03/20 08:26:08;;;;;;;22.65;8.23;;;;;;;7.38;93.98;101807.59;5059116;28;20043;-74
2023/03/20 08:28:33;;;;;;;23.90;8.85;;;;;;;7.42;93.67;101809.22;5074823;28;20051;-74
2023/03/20 08:30:59;;;;;;;22.60;8.07;;;;;;;7.46;93.09;101806.34;5067714;28;20024;-74
2023/03/20 08:33:24;;;;;;;23.90;8.07;;;;;;;7.50;92.48;101807.94;5063869;28;20098;-75
2023/03/20 08:35:57;;;;;;;24.52;7.97;;;;;;;7.55;93.30;101807.72;5050871;28;20673;-75
2023/03/20 08:38:23;;;;;;;25.88;9.15;;;;;;;7.57;92.04;101819.25;5059517;28;20024;-76
2023/03/20 08:40:48;;;;;;;25.40;8.02;;;;;;;7.60;92.42;101811.06;5071106;28;20509;-76
2023/03/20 08:43:14;;;;;;;23.90;9.32;;;;;;;7.63;91.85;101815.44;5053377;28;20035;-75
2023/03/20 08:45:39;;;;;;;26.30;8.13;;;;;;;7.65;92.02;101816.22;5052685;28;20032;-74
2023/03/20 08:48:05;;;;;;;24.58;7.47;;;;;;;7.66;91.71;101817.97;5071978;28;20028;-75
2023/03/20 08:50:31;;;;;;;19.73;7.32;;;;;;;7.70;91.73;101817.75;5065363;28;20029;-74
2023/03/20 08:52:56;;;;;;;24.55;7.63;;;;;;;7.73;92.45;101814.06;5055564;28;20060;-75
2023/03/20 08:55:21;;;;;;;23.90;8.43;;;;;;;7.73;92.40;101814.06;5058476;28;20044;-75
2023/03/20 08:57:47;;;;;;;24.60;7.57;;;;;;;7.73;91.42;101811.38;5062256;28;20024;-75
2023/03/20 09:00:14;;;;;;;26.25;8.35;;;;;;;7.73;91.16;101808.72;5058883;28;20112;-76
2023/03/20 09:02:40;;;;;;;26.20;8.45;;;;;;;7.73;91.02;101818.53;5062777;28;20036;-75
2023/03/20 09:05:06;;;;;;;25.58;8.75;;;;;;;7.72;91.62;101812.31;5062197;28;20089;-78
2023/03/20 09:07:31;;;;;;;27.75;9.50;;;;;;;7.74;90.96;101817.59;5070007;28;20134;-78
2023/03/20 09:09:56;;;;;;;23.63;9.00;;;;;;;7.70;91.15;101817.75;5072626;28;20043;-77
2023/03/20 09:12:22;;;;;;;25.30;9.38;;;;;;;7.67;91.04;101820.56;5073510;28;20081;-77
2023/03/20 09:14:47;;;;;;;19.75;8.02;;;;;;;7.65;92.12;101822.41;5070599;28;20121;-77
2023/03/20 09:17:12;;;;;;;25.73;8.32;;;;;;;7.63;93.17;101835.00;5071630;28;20033;-77
2023/03/20 09:19:41;;;;;;;23.05;8.63;;;;;;;7.62;94.65;101832.41;5071410;28;20478;-77
2023/03/20 09:22:06;;;;;;;23.08;8.38;;;;;;;7.60;95.22;101832.47;5074554;28;20126;-77
2023/03/20 09:24:32;;;;;;;23.83;8.57;;;;;;;7.59;96.86;101837.91;5070462;28;20525;-79
2023/03/20 09:26:59;;;;;;;23.13;8.00;;;;;;;7.52;97.76;101835.47;5068143;28;20035;-78
2023/03/20 09:29:25;;;;;;;22.58;8.45;;;;;;;7.50;99.58;101829.34;5069897;28;20027;-78
2023/03/20 09:31:52;;;;;;;23.20;9.48;;;;;;;7.50;100.00;101836.50;5066002;28;20129;-77
2023/03/20 09:34:17;;;;;;;24.77;9.02;;;;;;;7.50;100.00;101833.84;5065129;28;20035;-78
2023/03/20 09:36:42;;;;;;;23.80;8.57;;;;;;;7.47;100.00;101834.81;5065940;28;20044;-77
2023/03/20 09:39:08;;;;;;;28.17;8.43;;;;;;;7.48;100.00;101835.69;5072809;28;20055;-78
2023/03/20 09:41:36;;;;;;;23.73;8.77;;;;;;;7.48;100.00;101825.88;5071836;28;20196;-78
2023/03/20 09:44:13;;;;;;;22.77;8.70;;;;;;;7.50;100.00;101833.84;5070971;28;20024;-78
2023/03/20 09:47:09;;;;;;;23.88;8.68;;;;;;;7.51;100.00;101831.09;5071883;28;20032;-78
2023/03/20 09:49:52;;;;;;;26.65;9.15;;;;;;;7.51;100.00;101831.09;5058527;28;20025;-78
2023/03/20 09:52:27;;;;;;;22.65;8.90;;;;;;;7.50;100.00;101828.47;5065833;28;20040;-78
2023/03/20 09:54:57;;;;;;;24.75;9.23;;;;;;;7.49;100.00;101819.56;5075881;28;20024;-78
2023/03/20 09:57:28;;;;;;;22.67;8.10;;;;;;;7.50;100.00;101821.31;5067160;28;20768;-78
2023/03/20 10:00:02;;;;;;;25.27;8.60;;;;;;;7.50;100.00;101825.81;5062303;28;20565;-78
2023/03/20 10:02:39;;;;;;;24.02;8.38;;;;;;;7.49;100.00;101819.56;5061914;28;20025;-78
2023/03/20 10:05:21;;;;;;;24.27;8.30;;;;;;;7.50;100.00;101821.31;5063280;28;20468;-79
2023/03/20 10:07:46;;;;;;;26.27;9.05;;;;;;;7.56;100.00;101822.84;5056719;28;20028;-78
2023/03/20 10:10:14;;;;;;;22.63;7.60;;;;;;;7.53;100.00;101820.31;5069616;28;20025;-79
2023/03/20 10:12:51;;;;;;;23.65;7.82;;;;;;;7.52;100.00;101822.09;5077943;28;20068;-78
2023/03/20 10:15:27;;;;;;;25.85;8.05;;;;;;;7.52;100.00;101815.88;5068805;28;20100;-78
2023/03/20 10:18:15;;;;;;;20.35;6.68;;;;;;;7.56;100.00;101814.81;5060737;28;20043;-79
2023/03/20 10:21:14;;;;;;;21.85;6.78;;;;;;;7.63;100.00;101807.41;5069606;28;20056;-78
2023/03/20 10:23:50;;;;;;;17.65;6.20;;;;;;;7.64;100.00;101807.31;5070698;28;20025;-78
2023/03/20 10:26:19;;;;;;;23.50;7.22;;;;;;;7.68;100.00;101805.38;5068625;28;20053;-78
2023/03/20 10:28:58;;;;;;;20.17;6.50;;;;;;;7.75;100.00;101801.47;5069423;28;20052;-78
2023/03/20 10:31:49;;;;;;;23.40;8.50;;;;;;;7.87;100.00;101797.34;5066588;28;20361;-78
2023/03/20 10:34:36;;;;;;;24.98;8.15;;;;;;;7.93;100.00;101797.06;5073907;28;20033;-78
2023/03/20 10:37:23;;;;;;;22.30;7.88;;;;;;;7.99;100.00;101794.09;5075636;28;20039;-78
2023/03/20 10:39:57;;;;;;;20.85;7.82;;;;;;;7.97;100.00;101798.66;5075437;28;20036;-79
2023/03/20 10:42:29;;;;;;;20.25;7.10;;;;;;;8.03;100.00;101789.47;5071655;28;20032;-78
2023/03/20 10:45:17;;;;;;;21.17;6.80;;;;;;;8.09;100.00;101782.97;5063866;28;20507;-79
2023/03/20 10:47:46;;;;;;;24.98;7.88;;;;;;;8.12;100.00;101786.34;5072816;28;20090;-78
2023/03/20 10:50:18;;;;;;;25.83;8.02;;;;;;;8.18;100.00;101788.72;5079297;28;20029;-78
2023/03/20 10:52:48;;;;;;;21.52;7.55;;;;;;;8.13;100.00;101785.41;5074976;28;20435;-78
2023/03/20 10:55:19;;;;;;;21.88;8.48;;;;;;;8.15;100.00;101791.53;5055913;28;20017;-78
2023/03/20 10:58:00;;;;;;;23.02;8.27;;;;;;;8.20;100.00;101800.25;5066193;28;20036;-78
2023/03/20 11:00:26;;;;;;;21.70;7.35;;;;;;;8.21;100.00;101793.97;5071994;28;20017;-79
2023/03/20 11:02:52;;;;;;;28.27;8.38;;;;;;;8.24;100.00;101787.56;5072108;28;20129;-78
2023/03/20 11:05:35;;;;;;;24.13;8.40;;;;;;;8.30;100.00;101781.94;5070932;28;20048;-79
2023/03/20 11:08:10;;;;;;;25.35;8.45;;;;;;;8.33;100.00;101787.13;5066700;28;20076;-78
2023/03/20 11:10:38;;;;;;;20.40;7.28;;;;;;;8.37;100.00;101782.47;5071433;28;20057;-80
2023/03/20 11:13:18;;;;;;;22.40;8.15;;;;;;;8.39;100.00;101783.28;5077552;28;20411;-79
2023/03/20 11:15:44;;;;;;;25.60;7.07;;;;;;;8.36;100.00;101772.69;5082482;28;20043;-78
2023/03/20 11:18:12;;;;;;;24.83;7.93;;;;;;;8.36;100.00;101770.91;5083439;28;20036;-79
2023/03/20 11:21:03;;;;;;;23.38;7.60;;;;;;;8.38;100.00;101765.47;5080040;28;20075;-87
2023/03/20 11:23:33;;;;;;;20.95;7.07;;;;;;;8.37;100.00;101761.91;5072653;28;20488;-79
2023/03/20 11:26:01;;;;;;;26.45;7.68;;;;;;;8.37;100.00;101756.56;5068458;28;20013;-79
2023/03/20 11:28:34;;;;;;;22.40;7.25;;;;;;;8.39;100.00;101749.31;5078070;28;20025;-79